sensor_id;sensor_type;location;lat;lon;timestamp;P1;durP1;ratioP1;P2;durP2;ratioP2
58272;SDS011;44075;42.436;18.514;2022-08-11T00:01:43;17.98;;;13.98;;
58272;SDS011;44075;42.436;18.514;2022-08-11T00:04:09;17.92;;;15.75;;
58272;SDS011;44075;42.436;18.514;2022-08-11T00:06:39;16.25;;;14.10;;
58272;SDS011;44075;42.436;18.514;2022-08-11T00:09:10;18.33;;;15.10;;
58272;SDS011;44075;42.436;18.514;2022-08-11T00:11:45;17.60;;;15.80;;
58272;SDS011;44075;42.436;18.514;2022-08-11T00:14:16;17.10;;;15.50;;
58272;SDS011;44075;42.436;18.514;2022-08-11T00:16:58;16.77;;;14.93;;
58272;SDS011;44075;42.436;18.514;2022-08-11T00:19:26;15.77;;;14.10;;
58272;SDS011;44075;42.436;18.514;2022-08-11T00:21:56;14.15;;;12.82;;
58272;SDS011;44075;42.436;18.514;2022-08-11T00:24:23;18.23;;;14.98;;
58272;SDS011;44075;42.436;18.514;2022-08-11T00:26:50;18.42;;;16.48;;
58272;SDS011;44075;42.436;18.514;2022-08-11T00:29:19;14.98;;;13.38;;
58272;SDS011;44075;42.436;18.514;2022-08-11T00:31:50;15.90;;;14.00;;
58272;SDS011;44075;42.436;18.514;2022-08-11T00:34:26;15.27;;;13.63;;
58272;SDS011;44075;42.436;18.514;2022-08-11T00:39:20;15.23;;;13.73;;
58272;SDS011;44075;42.436;18.514;2022-08-11T00:49:34;14.45;;;13.02;;
58272;SDS011;44075;42.436;18.514;2022-08-11T00:54:57;13.15;;;11.75;;
58272;SDS011;44075;42.436;18.514;2022-08-11T01:00:21;13.35;;;11.95;;
58272;SDS011;44075;42.436;18.514;2022-08-11T01:10:30;13.40;;;11.90;;
58272;SDS011;44075;42.436;18.514;2022-08-11T01:31:26;16.98;;;15.27;;
58272;SDS011;44075;42.436;18.514;2022-08-11T01:50:00;19.70;;;18.00;;
58272;SDS011;44075;42.436;18.514;2022-08-11T01:52:29;18.02;;;16.33;;
58272;SDS011;44075;42.436;18.514;2022-08-11T01:55:13;16.45;;;14.85;;
58272;SDS011;44075;42.436;18.514;2022-08-11T01:57:43;18.08;;;16.38;;
58272;SDS011;44075;42.436;18.514;2022-08-11T02:02:52;17.17;;;15.48;;
58272;SDS011;44075;42.436;18.514;2022-08-11T02:10:57;19.75;;;17.85;;
58272;SDS011;44075;42.436;18.514;2022-08-11T02:25:09;18.38;;;16.55;;
58272;SDS011;44075;42.436;18.514;2022-08-11T02:27:46;17.98;;;16.25;;
58272;SDS011;44075;42.436;18.514;2022-08-11T02:30:15;17.30;;;15.52;;
58272;SDS011;44075;42.436;18.514;2022-08-11T02:32:56;17.33;;;15.73;;
58272;SDS011;44075;42.436;18.514;2022-08-11T02:38:31;17.65;;;15.95;;
58272;SDS011;44075;42.436;18.514;2022-08-11T02:41:04;18.38;;;16.67;;
58272;SDS011;44075;42.436;18.514;2022-08-11T02:43:59;17.08;;;15.50;;
58272;SDS011;44075;42.436;18.514;2022-08-11T02:46:31;17.95;;;15.85;;
58272;SDS011;44075;42.436;18.514;2022-08-11T02:55:17;17.67;;;16.00;;
58272;SDS011;44075;42.436;18.514;2022-08-11T02:58:09;17.60;;;15.95;;
58272;SDS011;44075;42.436;18.514;2022-08-11T03:03:31;17.17;;;15.57;;
58272;SDS011;44075;42.436;18.514;2022-08-11T03:06:08;15.70;;;14.10;;
58272;SDS011;44075;42.436;18.514;2022-08-11T03:11:10;16.42;;;14.75;;
58272;SDS011;44075;42.436;18.514;2022-08-11T03:14:13;16.98;;;15.38;;
58272;SDS011;44075;42.436;18.514;2022-08-11T03:17:06;16.73;;;15.18;;
58272;SDS011;44075;42.436;18.514;2022-08-11T03:22:08;16.65;;;15.02;;
58272;SDS011;44075;42.436;18.514;2022-08-11T03:34:56;16.70;;;14.88;;
58272;SDS011;44075;42.436;18.514;2022-08-11T03:40:22;16.35;;;14.82;;
58272;SDS011;44075;42.436;18.514;2022-08-11T03:51:30;16.35;;;14.70;;
58272;SDS011;44075;42.436;18.514;2022-08-11T04:12:38;16.80;;;14.85;;
58272;SDS011;44075;42.436;18.514;2022-08-11T04:20:50;15.93;;;13.80;;
58272;SDS011;44075;42.436;18.514;2022-08-11T04:28:27;16.55;;;14.95;;
58272;SDS011;44075;42.436;18.514;2022-08-11T04:39:26;17.27;;;15.48;;
58272;SDS011;44075;42.436;18.514;2022-08-11T04:50:38;20.98;;;16.83;;
58272;SDS011;44075;42.436;18.514;2022-08-11T04:53:51;19.13;;;16.10;;
58272;SDS011;44075;42.436;18.514;2022-08-11T04:56:33;20.02;;;17.15;;
58272;SDS011;44075;42.436;18.514;2022-08-11T04:59:38;18.38;;;16.38;;
58272;SDS011;44075;42.436;18.514;2022-08-11T05:07:58;19.38;;;17.23;;
58272;SDS011;44075;42.436;18.514;2022-08-11T05:13:08;17.52;;;15.63;;
58272;SDS011;44075;42.436;18.514;2022-08-11T05:15:57;16.83;;;15.13;;
58272;SDS011;44075;42.436;18.514;2022-08-11T05:18:49;17.25;;;14.95;;
58272;SDS011;44075;42.436;18.514;2022-08-11T05:21:35;17.48;;;15.60;;
58272;SDS011;44075;42.436;18.514;2022-08-11T05:27:04;17.30;;;15.55;;
58272;SDS011;44075;42.436;18.514;2022-08-11T05:29:55;16.83;;;14.57;;
58272;SDS011;44075;42.436;18.514;2022-08-11T05:32:41;17.50;;;15.77;;
58272;SDS011;44075;42.436;18.514;2022-08-11T05:35:40;16.70;;;14.95;;
58272;SDS011;44075;42.436;18.514;2022-08-11T05:38:12;15.82;;;14.30;;
58272;SDS011;44075;42.436;18.514;2022-08-11T05:40:59;15.43;;;13.93;;
58272;SDS011;44075;42.436;18.514;2022-08-11T05:43:45;17.55;;;15.75;;
58272;SDS011;44075;42.436;18.514;2022-08-11T05:46:30;16.42;;;14.82;;
58272;SDS011;44075;42.436;18.514;2022-08-11T05:49:22;15.50;;;13.75;;
58272;SDS011;44075;42.436;18.514;2022-08-11T05:52:12;15.43;;;13.82;;
58272;SDS011;44075;42.436;18.514;2022-08-11T05:55:04;16.42;;;14.77;;
58272;SDS011;44075;42.436;18.514;2022-08-11T05:57:54;15.85;;;14.20;;
58272;SDS011;44075;42.436;18.514;2022-08-11T06:00:20;15.90;;;14.30;;
58272;SDS011;44075;42.436;18.514;2022-08-11T06:02:52;15.95;;;14.45;;
58272;SDS011;44075;42.436;18.514;2022-08-11T06:08:27;16.02;;;13.75;;
58272;SDS011;44075;42.436;18.514;2022-08-11T06:10:58;15.05;;;13.63;;
58272;SDS011;44075;42.436;18.514;2022-08-11T06:13:25;14.23;;;12.80;;
58272;SDS011;44075;42.436;18.514;2022-08-11T06:15:52;16.30;;;12.85;;
58272;SDS011;44075;42.436;18.514;2022-08-11T06:18:19;14.73;;;13.32;;
58272;SDS011;44075;42.436;18.514;2022-08-11T06:20:53;16.70;;;12.77;;
58272;SDS011;44075;42.436;18.514;2022-08-11T06:23:21;14.30;;;12.90;;
58272;SDS011;44075;42.436;18.514;2022-08-11T06:25:48;14.63;;;12.73;;
58272;SDS011;44075;42.436;18.514;2022-08-11T06:28:15;16.55;;;12.43;;
58272;SDS011;44075;42.436;18.514;2022-08-11T06:30:46;14.93;;;13.32;;
58272;SDS011;44075;42.436;18.514;2022-08-11T06:33:16;15.07;;;13.55;;
58272;SDS011;44075;42.436;18.514;2022-08-11T06:35:56;16.33;;;14.52;;
58272;SDS011;44075;42.436;18.514;2022-08-11T06:40:58;16.65;;;15.00;;
58272;SDS011;44075;42.436;18.514;2022-08-11T06:43:46;16.00;;;14.38;;
58272;SDS011;44075;42.436;18.514;2022-08-11T06:46:14;17.27;;;15.25;;
58272;SDS011;44075;42.436;18.514;2022-08-11T06:48:42;17.95;;;16.05;;
58272;SDS011;44075;42.436;18.514;2022-08-11T06:51:09;17.30;;;15.55;;
58272;SDS011;44075;42.436;18.514;2022-08-11T06:56:05;17.20;;;15.35;;
58272;SDS011;44075;42.436;18.514;2022-08-11T06:58:50;16.63;;;14.93;;
58272;SDS011;44075;42.436;18.514;2022-08-11T07:04:31;16.42;;;14.82;;
58272;SDS011;44075;42.436;18.514;2022-08-11T07:07:22;16.30;;;14.60;;
58272;SDS011;44075;42.436;18.514;2022-08-11T07:13:15;16.20;;;14.60;;
58272;SDS011;44075;42.436;18.514;2022-08-11T07:16:03;16.52;;;14.82;;
58272;SDS011;44075;42.436;18.514;2022-08-11T07:18:33;16.73;;;15.07;;
58272;SDS011;44075;42.436;18.514;2022-08-11T07:21:40;17.65;;;15.50;;
58272;SDS011;44075;42.436;18.514;2022-08-11T07:24:29;16.88;;;15.18;;
58272;SDS011;44075;42.436;18.514;2022-08-11T07:27:16;17.65;;;15.93;;
58272;SDS011;44075;42.436;18.514;2022-08-11T07:30:06;17.33;;;15.55;;
58272;SDS011;44075;42.436;18.514;2022-08-11T07:32:59;16.17;;;14.57;;
58272;SDS011;44075;42.436;18.514;2022-08-11T07:35:27;16.58;;;14.88;;
58272;SDS011;44075;42.436;18.514;2022-08-11T07:37:57;16.13;;;14.40;;
58272;SDS011;44075;42.436;18.514;2022-08-11T07:40:24;17.08;;;15.27;;
58272;SDS011;44075;42.436;18.514;2022-08-11T07:42:52;16.58;;;14.65;;
58272;SDS011;44075;42.436;18.514;2022-08-11T07:45:19;17.00;;;15.30;;
58272;SDS011;44075;42.436;18.514;2022-08-11T07:50:49;17.98;;;16.10;;
58272;SDS011;44075;42.436;18.514;2022-08-11T07:56:02;16.58;;;14.88;;
58272;SDS011;44075;42.436;18.514;2022-08-11T07:58:29;23.67;;;18.38;;
58272;SDS011;44075;42.436;18.514;2022-08-11T08:01:21;18.55;;;16.63;;
58272;SDS011;44075;42.436;18.514;2022-08-11T08:04:07;17.92;;;16.17;;
58272;SDS011;44075;42.436;18.514;2022-08-11T08:06:53;17.75;;;16.05;;
58272;SDS011;44075;42.436;18.514;2022-08-11T08:09:45;15.45;;;12.98;;
58272;SDS011;44075;42.436;18.514;2022-08-11T08:12:31;10.82;;;9.18;;
58272;SDS011;44075;42.436;18.514;2022-08-11T08:15:17;16.17;;;14.52;;
58272;SDS011;44075;42.436;18.514;2022-08-11T08:18:03;14.85;;;13.35;;
58272;SDS011;44075;42.436;18.514;2022-08-11T08:20:38;16.17;;;14.63;;
58272;SDS011;44075;42.436;18.514;2022-08-11T08:23:05;17.60;;;15.65;;
58272;SDS011;44075;42.436;18.514;2022-08-11T08:25:32;20.27;;;18.08;;
58272;SDS011;44075;42.436;18.514;2022-08-11T08:28:00;21.10;;;17.42;;
58272;SDS011;44075;42.436;18.514;2022-08-11T08:30:27;18.25;;;16.27;;
58272;SDS011;44075;42.436;18.514;2022-08-11T08:33:19;19.05;;;16.60;;
58272;SDS011;44075;42.436;18.514;2022-08-11T08:35:46;16.67;;;14.98;;
58272;SDS011;44075;42.436;18.514;2022-08-11T08:38:13;18.95;;;16.98;;
58272;SDS011;44075;42.436;18.514;2022-08-11T08:40:42;19.67;;;17.13;;
58272;SDS011;44075;42.436;18.514;2022-08-11T08:43:12;16.95;;;14.38;;
58272;SDS011;44075;42.436;18.514;2022-08-11T08:45:40;16.27;;;14.57;;
58272;SDS011;44075;42.436;18.514;2022-08-11T08:48:10;14.27;;;12.13;;
58272;SDS011;44075;42.436;18.514;2022-08-11T08:50:42;12.95;;;11.45;;
58272;SDS011;44075;42.436;18.514;2022-08-11T08:53:28;15.27;;;13.32;;
58272;SDS011;44075;42.436;18.514;2022-08-11T08:56:00;17.00;;;14.10;;
58272;SDS011;44075;42.436;18.514;2022-08-11T08:58:26;14.07;;;12.13;;
58272;SDS011;44075;42.436;18.514;2022-08-11T09:00:55;15.48;;;12.32;;
58272;SDS011;44075;42.436;18.514;2022-08-11T09:03:21;13.35;;;11.23;;
58272;SDS011;44075;42.436;18.514;2022-08-11T09:05:48;14.82;;;12.50;;
58272;SDS011;44075;42.436;18.514;2022-08-11T09:08:18;15.80;;;14.18;;
58272;SDS011;44075;42.436;18.514;2022-08-11T09:10:46;15.32;;;13.73;;
58272;SDS011;44075;42.436;18.514;2022-08-11T09:13:32;14.88;;;13.23;;
58272;SDS011;44075;42.436;18.514;2022-08-11T09:16:06;20.57;;;18.60;;
58272;SDS011;44075;42.436;18.514;2022-08-11T09:18:34;22.75;;;20.48;;
58272;SDS011;44075;42.436;18.514;2022-08-11T09:21:02;20.88;;;18.73;;
58272;SDS011;44075;42.436;18.514;2022-08-11T09:23:28;18.10;;;16.30;;
58272;SDS011;44075;42.436;18.514;2022-08-11T09:26:14;20.77;;;18.63;;
58272;SDS011;44075;42.436;18.514;2022-08-11T09:28:59;19.17;;;16.63;;
58272;SDS011;44075;42.436;18.514;2022-08-11T09:31:29;18.65;;;16.85;;
58272;SDS011;44075;42.436;18.514;2022-08-11T09:33:57;20.23;;;18.15;;
58272;SDS011;44075;42.436;18.514;2022-08-11T09:36:24;19.67;;;17.67;;
58272;SDS011;44075;42.436;18.514;2022-08-11T09:41:53;21.15;;;18.95;;
58272;SDS011;44075;42.436;18.514;2022-08-11T09:44:19;17.30;;;15.60;;
58272;SDS011;44075;42.436;18.514;2022-08-11T09:47:05;16.73;;;15.02;;
58272;SDS011;44075;42.436;18.514;2022-08-11T09:49:40;17.20;;;15.55;;
58272;SDS011;44075;42.436;18.514;2022-08-11T09:52:07;16.20;;;14.70;;
58272;SDS011;44075;42.436;18.514;2022-08-11T09:54:34;16.23;;;14.65;;
58272;SDS011;44075;42.436;18.514;2022-08-11T09:57:00;16.20;;;14.65;;
58272;SDS011;44075;42.436;18.514;2022-08-11T10:00:09;15.07;;;13.38;;
58272;SDS011;44075;42.436;18.514;2022-08-11T10:02:39;15.93;;;14.32;;
58272;SDS011;44075;42.436;18.514;2022-08-11T10:05:06;15.70;;;14.10;;
58272;SDS011;44075;42.436;18.514;2022-08-11T10:07:58;13.95;;;12.55;;
58272;SDS011;44075;42.436;18.514;2022-08-11T10:10:25;16.17;;;14.63;;
58272;SDS011;44075;42.436;18.514;2022-08-11T10:12:55;16.00;;;14.40;;
58272;SDS011;44075;42.436;18.514;2022-08-11T10:18:03;23.52;;;21.10;;
58272;SDS011;44075;42.436;18.514;2022-08-11T10:20:50;17.88;;;16.17;;
58272;SDS011;44075;42.436;18.514;2022-08-11T10:23:17;17.63;;;15.77;;
58272;SDS011;44075;42.436;18.514;2022-08-11T10:26:02;19.48;;;17.45;;
58272;SDS011;44075;42.436;18.514;2022-08-11T10:28:47;16.17;;;14.57;;
58272;SDS011;44075;42.436;18.514;2022-08-11T10:31:14;18.90;;;16.88;;
58272;SDS011;44075;42.436;18.514;2022-08-11T10:34:00;17.75;;;16.02;;
58272;SDS011;44075;42.436;18.514;2022-08-11T10:36:30;16.27;;;14.57;;
58272;SDS011;44075;42.436;18.514;2022-08-11T10:38:57;15.35;;;13.73;;
58272;SDS011;44075;42.436;18.514;2022-08-11T10:41:25;15.07;;;13.52;;
58272;SDS011;44075;42.436;18.514;2022-08-11T10:44:12;15.07;;;13.57;;
58272;SDS011;44075;42.436;18.514;2022-08-11T10:46:38;16.30;;;14.70;;
58272;SDS011;44075;42.436;18.514;2022-08-11T10:49:24;19.45;;;16.45;;
58272;SDS011;44075;42.436;18.514;2022-08-11T10:51:55;17.98;;;15.85;;
58272;SDS011;44075;42.436;18.514;2022-08-11T10:54:44;18.40;;;16.50;;
58272;SDS011;44075;42.436;18.514;2022-08-11T10:57:35;14.05;;;12.55;;
58272;SDS011;44075;42.436;18.514;2022-08-11T11:00:20;16.17;;;13.77;;
58272;SDS011;44075;42.436;18.514;2022-08-11T11:02:51;12.95;;;11.73;;
58272;SDS011;44075;42.436;18.514;2022-08-11T11:05:21;14.48;;;12.98;;
58272;SDS011;44075;42.436;18.514;2022-08-11T11:07:51;17.90;;;16.00;;
58272;SDS011;44075;42.436;18.514;2022-08-11T11:10:27;14.15;;;12.65;;
58272;SDS011;44075;42.436;18.514;2022-08-11T11:12:56;14.60;;;13.07;;
58272;SDS011;44075;42.436;18.514;2022-08-11T11:15:43;14.38;;;12.88;;
58272;SDS011;44075;42.436;18.514;2022-08-11T11:18:47;16.65;;;14.75;;
58272;SDS011;44075;42.436;18.514;2022-08-11T11:21:16;14.93;;;13.27;;
58272;SDS011;44075;42.436;18.514;2022-08-11T11:23:54;14.90;;;13.48;;
58272;SDS011;44075;42.436;18.514;2022-08-11T11:36:22;12.70;;;11.10;;
58272;SDS011;44075;42.436;18.514;2022-08-11T11:38:50;12.25;;;10.05;;
58272;SDS011;44075;42.436;18.514;2022-08-11T11:41:20;11.25;;;10.05;;
58272;SDS011;44075;42.436;18.514;2022-08-11T11:43:52;12.15;;;10.85;;
58272;SDS011;44075;42.436;18.514;2022-08-11T11:46:18;10.60;;;9.50;;
58272;SDS011;44075;42.436;18.514;2022-08-11T11:48:51;11.63;;;10.18;;
58272;SDS011;44075;42.436;18.514;2022-08-11T11:51:17;12.85;;;10.95;;
58272;SDS011;44075;42.436;18.514;2022-08-11T11:53:50;11.88;;;10.65;;
58272;SDS011;44075;42.436;18.514;2022-08-11T11:56:18;11.57;;;9.50;;
58272;SDS011;44075;42.436;18.514;2022-08-11T11:58:47;11.07;;;9.70;;
58272;SDS011;44075;42.436;18.514;2022-08-11T12:01:32;10.98;;;9.48;;
58272;SDS011;44075;42.436;18.514;2022-08-11T12:04:02;10.45;;;8.77;;
58272;SDS011;44075;42.436;18.514;2022-08-11T12:06:32;10.75;;;9.52;;
58272;SDS011;44075;42.436;18.514;2022-08-11T12:08:58;10.68;;;9.35;;
58272;SDS011;44075;42.436;18.514;2022-08-11T12:11:25;17.30;;;11.93;;
58272;SDS011;44075;42.436;18.514;2022-08-11T12:14:11;14.07;;;10.93;;
58272;SDS011;44075;42.436;18.514;2022-08-11T12:16:40;13.02;;;11.45;;
58272;SDS011;44075;42.436;18.514;2022-08-11T12:19:17;14.55;;;11.50;;
58272;SDS011;44075;42.436;18.514;2022-08-11T12:21:45;13.10;;;11.40;;
58272;SDS011;44075;42.436;18.514;2022-08-11T12:24:31;13.23;;;10.77;;
58272;SDS011;44075;42.436;18.514;2022-08-11T12:27:17;11.95;;;10.55;;
58272;SDS011;44075;42.436;18.514;2022-08-11T12:29:57;14.95;;;11.95;;
58272;SDS011;44075;42.436;18.514;2022-08-11T12:32:28;13.80;;;12.40;;
58272;SDS011;44075;42.436;18.514;2022-08-11T12:34:55;15.57;;;12.88;;
58272;SDS011;44075;42.436;18.514;2022-08-11T12:37:32;15.48;;;13.93;;
58272;SDS011;44075;42.436;18.514;2022-08-11T12:40:04;16.65;;;14.93;;
58272;SDS011;44075;42.436;18.514;2022-08-11T12:42:54;15.55;;;13.95;;
58272;SDS011;44075;42.436;18.514;2022-08-11T12:45:43;17.48;;;15.90;;
58272;SDS011;44075;42.436;18.514;2022-08-11T12:48:14;16.90;;;15.20;;
58272;SDS011;44075;42.436;18.514;2022-08-11T12:51:02;21.67;;;19.48;;
58272;SDS011;44075;42.436;18.514;2022-08-11T12:53:58;15.60;;;14.00;;
58272;SDS011;44075;42.436;18.514;2022-08-11T12:56:25;16.75;;;14.98;;
58272;SDS011;44075;42.436;18.514;2022-08-11T12:59:12;15.77;;;14.15;;
58272;SDS011;44075;42.436;18.514;2022-08-11T13:01:57;15.88;;;14.27;;
58272;SDS011;44075;42.436;18.514;2022-08-11T13:04:42;16.70;;;15.00;;
58272;SDS011;44075;42.436;18.514;2022-08-11T13:07:26;16.67;;;14.85;;
58272;SDS011;44075;42.436;18.514;2022-08-11T13:09:57;16.08;;;14.48;;
58272;SDS011;44075;42.436;18.514;2022-08-11T13:12:25;17.17;;;15.43;;
58272;SDS011;44075;42.436;18.514;2022-08-11T13:15:15;16.63;;;14.93;;
58272;SDS011;44075;42.436;18.514;2022-08-11T13:17:42;18.35;;;16.55;;
58272;SDS011;44075;42.436;18.514;2022-08-11T13:20:09;17.40;;;15.52;;
58272;SDS011;44075;42.436;18.514;2022-08-11T13:22:37;17.48;;;15.68;;
58272;SDS011;44075;42.436;18.514;2022-08-11T13:25:04;18.05;;;16.23;;
58272;SDS011;44075;42.436;18.514;2022-08-11T13:27:30;14.48;;;12.95;;
58272;SDS011;44075;42.436;18.514;2022-08-11T13:29:57;15.90;;;10.43;;
58272;SDS011;44075;42.436;18.514;2022-08-11T13:32:43;19.10;;;16.63;;
58272;SDS011;44075;42.436;18.514;2022-08-11T13:35:10;17.80;;;16.10;;
58272;SDS011;44075;42.436;18.514;2022-08-11T13:37:39;18.42;;;16.60;;
58272;SDS011;44075;42.436;18.514;2022-08-11T13:40:12;18.98;;;17.08;;
58272;SDS011;44075;42.436;18.514;2022-08-11T13:42:44;19.40;;;17.35;;
58272;SDS011;44075;42.436;18.514;2022-08-11T13:45:14;19.85;;;17.85;;
58272;SDS011;44075;42.436;18.514;2022-08-11T13:47:43;26.50;;;23.60;;
58272;SDS011;44075;42.436;18.514;2022-08-11T13:50:17;24.65;;;22.23;;
58272;SDS011;44075;42.436;18.514;2022-08-11T13:52:43;20.25;;;18.23;;
58272;SDS011;44075;42.436;18.514;2022-08-11T13:55:13;34.55;;;31.45;;
58272;SDS011;44075;42.436;18.514;2022-08-11T13:57:50;26.98;;;24.30;;
58272;SDS011;44075;42.436;18.514;2022-08-11T14:00:20;34.58;;;30.98;;
58272;SDS011;44075;42.436;18.514;2022-08-11T14:02:55;44.45;;;40.17;;
58272;SDS011;44075;42.436;18.514;2022-08-11T14:05:25;66.20;;;59.67;;
58272;SDS011;44075;42.436;18.514;2022-08-11T14:07:58;60.75;;;54.95;;
58272;SDS011;44075;42.436;18.514;2022-08-11T14:10:26;138.13;;;125.07;;
58272;SDS011;44075;42.436;18.514;2022-08-11T14:12:59;72.45;;;65.43;;
58272;SDS011;44075;42.436;18.514;2022-08-11T14:15:44;125.28;;;112.10;;
58272;SDS011;44075;42.436;18.514;2022-08-11T14:20:41;71.60;;;63.83;;
58272;SDS011;44075;42.436;18.514;2022-08-11T14:23:31;69.75;;;60.70;;
58272;SDS011;44075;42.436;18.514;2022-08-11T14:25:58;72.72;;;63.83;;
58272;SDS011;44075;42.436;18.514;2022-08-11T14:28:43;63.20;;;55.80;;
58272;SDS011;44075;42.436;18.514;2022-08-11T14:31:10;61.47;;;54.17;;
58272;SDS011;44075;42.436;18.514;2022-08-11T14:33:36;69.88;;;61.92;;
58272;SDS011;44075;42.436;18.514;2022-08-11T14:36:06;43.95;;;39.22;;
58272;SDS011;44075;42.436;18.514;2022-08-11T14:38:33;65.65;;;58.35;;
58272;SDS011;44075;42.436;18.514;2022-08-11T14:41:01;51.78;;;46.33;;
58272;SDS011;44075;42.436;18.514;2022-08-11T14:43:46;47.25;;;41.80;;
58272;SDS011;44075;42.436;18.514;2022-08-11T14:49:17;50.67;;;45.22;;
58272;SDS011;44075;42.436;18.514;2022-08-11T14:51:44;37.38;;;33.22;;
58272;SDS011;44075;42.436;18.514;2022-08-11T14:54:10;39.67;;;34.85;;
58272;SDS011;44075;42.436;18.514;2022-08-11T14:59:23;35.63;;;30.85;;
58272;SDS011;44075;42.436;18.514;2022-08-11T15:01:50;85.10;;;75.60;;
58272;SDS011;44075;42.436;18.514;2022-08-11T15:04:35;55.65;;;49.55;;
58272;SDS011;44075;42.436;18.514;2022-08-11T15:07:03;47.70;;;42.25;;
58272;SDS011;44075;42.436;18.514;2022-08-11T15:09:30;67.22;;;59.60;;
58272;SDS011;44075;42.436;18.514;2022-08-11T15:11:56;73.18;;;58.08;;
58272;SDS011;44075;42.436;18.514;2022-08-11T15:14:33;50.97;;;44.72;;
58272;SDS011;44075;42.436;18.514;2022-08-11T15:17:20;54.08;;;48.42;;
58272;SDS011;44075;42.436;18.514;2022-08-11T15:19:47;31.98;;;28.55;;
58272;SDS011;44075;42.436;18.514;2022-08-11T15:22:33;69.65;;;62.42;;
58272;SDS011;44075;42.436;18.514;2022-08-11T15:25:20;31.58;;;28.48;;
58272;SDS011;44075;42.436;18.514;2022-08-11T15:27:51;51.10;;;45.42;;
58272;SDS011;44075;42.436;18.514;2022-08-11T15:30:37;29.55;;;25.25;;
58272;SDS011;44075;42.436;18.514;2022-08-11T15:36:07;33.17;;;27.60;;
58272;SDS011;44075;42.436;18.514;2022-08-11T15:38:57;28.05;;;23.85;;
58272;SDS011;44075;42.436;18.514;2022-08-11T15:41:27;50.22;;;42.28;;
58272;SDS011;44075;42.436;18.514;2022-08-11T15:44:13;34.63;;;29.08;;
58272;SDS011;44075;42.436;18.514;2022-08-11T15:46:59;29.45;;;26.08;;
58272;SDS011;44075;42.436;18.514;2022-08-11T15:49:28;37.30;;;33.28;;
58272;SDS011;44075;42.436;18.514;2022-08-11T15:54:50;32.20;;;26.42;;
58272;SDS011;44075;42.436;18.514;2022-08-11T15:57:17;21.48;;;19.17;;
58272;SDS011;44075;42.436;18.514;2022-08-11T16:00:03;14.52;;;13.02;;
58272;SDS011;44075;42.436;18.514;2022-08-11T16:02:48;14.68;;;12.88;;
58272;SDS011;44075;42.436;18.514;2022-08-11T16:05:34;14.65;;;13.15;;
58272;SDS011;44075;42.436;18.514;2022-08-11T16:08:01;24.90;;;20.95;;
58272;SDS011;44075;42.436;18.514;2022-08-11T16:10:27;38.50;;;32.25;;
58272;SDS011;44075;42.436;18.514;2022-08-11T16:12:58;29.85;;;24.35;;
58272;SDS011;44075;42.436;18.514;2022-08-11T16:15:31;26.00;;;22.35;;
58272;SDS011;44075;42.436;18.514;2022-08-11T16:18:21;48.83;;;40.35;;
58272;SDS011;44075;42.436;18.514;2022-08-11T16:21:22;24.40;;;19.67;;
58272;SDS011;44075;42.436;18.514;2022-08-11T16:23:49;36.42;;;31.58;;
58272;SDS011;44075;42.436;18.514;2022-08-11T16:26:16;57.70;;;41.92;;
58272;SDS011;44075;42.436;18.514;2022-08-11T16:28:56;52.80;;;42.10;;
58272;SDS011;44075;42.436;18.514;2022-08-11T16:31:23;54.45;;;43.08;;
58272;SDS011;44075;42.436;18.514;2022-08-11T16:33:52;71.18;;;53.25;;
58272;SDS011;44075;42.436;18.514;2022-08-11T16:36:20;70.65;;;52.97;;
58272;SDS011;44075;42.436;18.514;2022-08-11T16:39:06;29.85;;;25.98;;
58272;SDS011;44075;42.436;18.514;2022-08-11T16:41:34;22.98;;;20.50;;
58272;SDS011;44075;42.436;18.514;2022-08-11T16:44:19;17.55;;;15.55;;
58272;SDS011;44075;42.436;18.514;2022-08-11T16:47:05;27.90;;;22.30;;
58272;SDS011;44075;42.436;18.514;2022-08-11T16:49:33;42.33;;;34.25;;
58272;SDS011;44075;42.436;18.514;2022-08-11T16:52:01;28.98;;;24.60;;
58272;SDS011;44075;42.436;18.514;2022-08-11T16:54:32;42.97;;;35.15;;
58272;SDS011;44075;42.436;18.514;2022-08-11T16:57:01;29.63;;;24.35;;
58272;SDS011;44075;42.436;18.514;2022-08-11T16:59:48;19.05;;;16.90;;
58272;SDS011;44075;42.436;18.514;2022-08-11T17:02:16;22.60;;;18.75;;
58272;SDS011;44075;42.436;18.514;2022-08-11T17:05:17;17.65;;;15.80;;
58272;SDS011;44075;42.436;18.514;2022-08-11T17:08:04;16.75;;;14.95;;
58272;SDS011;44075;42.436;18.514;2022-08-11T17:10:52;14.93;;;13.25;;
58272;SDS011;44075;42.436;18.514;2022-08-11T17:13:39;14.85;;;13.18;;
58272;SDS011;44075;42.436;18.514;2022-08-11T17:16:07;14.98;;;13.43;;
58272;SDS011;44075;42.436;18.514;2022-08-11T17:21:06;14.52;;;12.95;;
58272;SDS011;44075;42.436;18.514;2022-08-11T17:23:37;15.95;;;13.90;;
58272;SDS011;44075;42.436;18.514;2022-08-11T17:26:19;20.52;;;18.27;;
58272;SDS011;44075;42.436;18.514;2022-08-11T17:28:47;30.55;;;27.25;;
58272;SDS011;44075;42.436;18.514;2022-08-11T17:31:15;32.05;;;25.35;;
58272;SDS011;44075;42.436;18.514;2022-08-11T17:34:01;30.63;;;25.33;;
58272;SDS011;44075;42.436;18.514;2022-08-11T17:36:46;37.58;;;28.13;;
58272;SDS011;44075;42.436;18.514;2022-08-11T17:39:15;45.10;;;33.72;;
58272;SDS011;44075;42.436;18.514;2022-08-11T17:41:41;54.15;;;38.97;;
58272;SDS011;44075;42.436;18.514;2022-08-11T17:44:27;65.20;;;44.85;;
58272;SDS011;44075;42.436;18.514;2022-08-11T17:47:13;58.63;;;44.20;;
58272;SDS011;44075;42.436;18.514;2022-08-11T17:49:58;69.97;;;47.63;;
58272;SDS011;44075;42.436;18.514;2022-08-11T17:52:24;72.05;;;49.85;;
58272;SDS011;44075;42.436;18.514;2022-08-11T17:55:10;51.97;;;37.60;;
58272;SDS011;44075;42.436;18.514;2022-08-11T18:00:39;24.10;;;19.70;;
58272;SDS011;44075;42.436;18.514;2022-08-11T18:03:06;25.70;;;19.63;;
58272;SDS011;44075;42.436;18.514;2022-08-11T18:05:51;22.42;;;17.23;;
58272;SDS011;44075;42.436;18.514;2022-08-11T18:08:18;20.48;;;16.27;;
58272;SDS011;44075;42.436;18.514;2022-08-11T18:11:04;19.38;;;16.05;;
58272;SDS011;44075;42.436;18.514;2022-08-11T18:16:33;20.90;;;17.05;;
58272;SDS011;44075;42.436;18.514;2022-08-11T18:19:18;16.70;;;13.73;;
58272;SDS011;44075;42.436;18.514;2022-08-11T18:22:12;14.95;;;12.15;;
58272;SDS011;44075;42.436;18.514;2022-08-11T18:25:04;16.20;;;11.88;;
58272;SDS011;44075;42.436;18.514;2022-08-11T18:27:52;19.88;;;12.55;;
58272;SDS011;44075;42.436;18.514;2022-08-11T18:30:37;22.67;;;16.77;;
58272;SDS011;44075;42.436;18.514;2022-08-11T18:33:23;42.67;;;31.58;;
58272;SDS011;44075;42.436;18.514;2022-08-11T18:36:11;59.08;;;41.10;;
58272;SDS011;44075;42.436;18.514;2022-08-11T18:38:56;72.65;;;49.30;;
58272;SDS011;44075;42.436;18.514;2022-08-11T18:41:42;71.32;;;51.20;;
58272;SDS011;44075;42.436;18.514;2022-08-11T18:44:31;71.18;;;48.17;;
58272;SDS011;44075;42.436;18.514;2022-08-11T18:47:18;62.05;;;44.33;;
58272;SDS011;44075;42.436;18.514;2022-08-11T18:50:04;64.65;;;44.10;;
58272;SDS011;44075;42.436;18.514;2022-08-11T18:52:52;64.47;;;46.22;;